Airfield :
LOGIN :

Register | Disclaimer

   EN    FR    IT 

 










Legend :    VFR   Marginal VFR   IFR   Intensive IFR   Very Intensive IFR
Visi :
Ceiling :
>= 8 km
>= 3000ft
5 to 8 km
1000 to 3000 ft
1500m to 5 km
500 to 1000 ft
800 to 1500m
200 to 500 ft
< 800m
< 200 ft
Symbols :   Thunderstorms  Fog  Heavy snow  Heavy precipitations  Wind > 20 kt
SIGMETs :     Misc.  Thunderstorms  Icing  Turbulence  Mountain Waves  Volcanic Ashes






- Airport Elevation : 226 ft
- IATA code : BEX


EGUB - RAF Benson

CURRENT METAR :
  • 130950Z 26013KT 9999 BKN032 07/03 Q0981 BECMG 28018G30KT RMK BLU BECMG BLU

EXPIRED METARs :
  • 130922Z 27011KT 9999 BKN031 07/03 Q0980 BECMG 28018G30KT RMK BLU BECMG BLU
  • 130850Z 26014G26KT 9999 BKN030 07/03 Q0979 NOSIG RMK BLU BLU
  • 130821Z 26013G24KT 9999 BKN030 06/03 Q0979 NOSIG RMK BLU BLU
  • 130750Z 26012KT 9999 BKN030 07/03 Q0978 TEMPO SCT024 RMK BLU TEMPO WHT
  • 130721Z 26011KT 9999 BKN028 07/03 Q0977 TEMPO SCT024 RMK BLU TEMPO WHT

TAF TAF EGUB
Valid from the 13 at 09:00 until the 13 at 18:00 UTC


130739Z 1309/1318 27013KT 9999 FEW020 BKN030
BECMG 1309/1311 28018G30KT
TEMPO 1309/1315 SCT020
ATIS : +44 1491-837766 (x7524)



MET'MAP, your aeronautical weather chart ! - Copyright ORBIFLY December 2007 - Disclaimer

ORBIFLY MET'MAP TEAM :

Programming & Development : Alexandra Zaïnal
Concept & original design : Baudouin d'Aumeries
Assistance for programming : Marc-Olivier Méhu
Technical & hardware support : Manuel Goepfert

Contact : metmap@orbifly.com




SOURCES & CREDITS :

   NOAA